Time;durP1;ratioP1;P1;durP2;ratioP2;P2;SDS_P1;SDS_P2;PMS_P1;PMS_P2;Temp;Humidity;BMP_temperature;BMP_pressure;BME280_temperature;BME280_humidity;BME280_pressure;Samples;Min_cycle;Max_cycle;Signal;HPM_P1;HPM_P2
2022/07/21 00:00:47;;;;;;;0.10;0.10;;;;;;;;;;4986725;28;20157;-81
2022/07/21 00:03:13;;;;;;;0.10;0.10;;;;;;;;;;4986756;28;20474;-81
2022/07/21 00:05:39;;;;;;;0.10;0.10;;;;;;;;;;4986507;28;20056;-77
2022/07/21 00:08:05;;;;;;;0.10;0.10;;;;;;;;;;5002123;28;20109;-82
2022/07/21 00:10:31;;;;;;;0.10;0.10;;;;;;;;;;4986498;28;20061;-83
2022/07/21 00:12:57;;;;;;;0.10;0.10;;;;;;;;;;4986762;28;20102;-77
2022/07/21 00:15:24;;;;;;;0.10;0.10;;;;;;;;;;4987044;28;20434;-78
2022/07/21 00:17:51;;;;;;;0.10;0.10;;;;;;;;;;4986793;28;20022;-82
2022/07/21 00:20:17;;;;;;;0.10;0.10;;;;;;;;;;4985939;28;20030;-80
2022/07/21 00:22:43;;;;;;;0.10;0.10;;;;;;;;;;4986391;28;20498;-79
2022/07/21 00:25:11;;;;;;;0.10;0.10;;;;;;;;;;4986247;28;20045;-82
2022/07/21 00:27:37;;;;;;;0.10;0.10;;;;;;;;;;4987254;28;20427;-76
2022/07/21 00:30:04;;;;;;;0.10;0.10;;;;;;;;;;4986203;28;20454;-80
2022/07/21 00:32:30;;;;;;;0.10;0.10;;;;;;;;;;4984922;28;20088;-84
2022/07/21 00:34:56;;;;;;;0.10;0.10;;;;;;;;;;4988548;28;20101;-86
2022/07/21 00:37:23;;;;;;;0.10;0.10;;;;;;;;;;4986067;28;20114;-86
2022/07/21 00:39:50;;;;;;;0.15;0.15;;;;;;;;;;4984633;28;20030;-82
2022/07/21 00:42:23;;;;;;;0.10;0.10;;;;;;;;;;4985726;28;20030;-84
2022/07/21 00:44:49;;;;;;;0.10;0.10;;;;;;;;;;4986226;28;20034;-81
2022/07/21 00:47:15;;;;;;;0.10;0.10;;;;;;;;;;4986135;28;20030;-83
2022/07/21 00:49:42;;;;;;;0.10;0.10;;;;;;;;;;4985496;28;20053;-81
2022/07/21 00:52:08;;;;;;;0.10;0.10;;;;;;;;;;4986071;28;20128;-77
2022/07/21 00:54:34;;;;;;;0.10;0.10;;;;;;;;;;4985823;28;20026;-80
2022/07/21 00:57:00;;;;;;;0.10;0.10;;;;;;;;;;4986345;28;20065;-78
2022/07/21 00:59:27;;;;;;;0.10;0.10;;;;;;;;;;4986496;28;20030;-81
2022/07/21 01:01:53;;;;;;;0.10;0.10;;;;;;;;;;4986048;28;20019;-78
2022/07/21 01:04:19;;;;;;;0.10;0.10;;;;;;;;;;4985447;28;20038;-80
2022/07/21 01:06:45;;;;;;;0.10;0.10;;;;;;;;;;4984887;28;20386;-80
2022/07/21 01:09:11;;;;;;;0.10;0.10;;;;;;;;;;4985430;28;20030;-79
2022/07/21 01:11:37;;;;;;;0.10;0.10;;;;;;;;;;4986058;28;20438;-78
2022/07/21 01:14:03;;;;;;;0.10;0.10;;;;;;;;;;4985250;28;20034;-79
2022/07/21 01:16:29;;;;;;;0.10;0.10;;;;;;;;;;4985944;28;20057;-81
2022/07/21 01:18:55;;;;;;;0.10;0.10;;;;;;;;;;4985584;28;20038;-79
2022/07/21 01:21:30;;;;;;;0.10;0.10;;;;;;;;;;4985592;28;20034;-83
2022/07/21 01:23:56;;;;;;;0.10;0.10;;;;;;;;;;4985495;28;20030;-82
2022/07/21 01:26:22;;;;;;;0.10;0.10;;;;;;;;;;4986318;28;20417;-82
2022/07/21 01:28:48;;;;;;;0.10;0.10;;;;;;;;;;4986234;28;20083;-81
2022/07/21 01:31:14;;;;;;;0.10;0.10;;;;;;;;;;4986468;28;20433;-81
2022/07/21 01:33:40;;;;;;;0.10;0.10;;;;;;;;;;4984570;28;20496;-80
2022/07/21 01:36:07;;;;;;;0.10;0.10;;;;;;;;;;4986322;28;20033;-76
2022/07/21 01:41:29;;;;;;;0.10;0.10;;;;;;;;;;4985859;28;20076;-81
2022/07/21 01:44:03;;;;;;;0.20;0.20;;;;;;;;;;4987422;28;20030;-83
2022/07/21 01:46:30;;;;;;;0.10;0.10;;;;;;;;;;4990062;28;20026;-81
2022/07/21 01:48:57;;;;;;;0.10;0.10;;;;;;;;;;4988686;28;20056;-85
2022/07/21 01:51:23;;;;;;;0.10;0.10;;;;;;;;;;4990065;28;20038;-84
2022/07/21 01:53:49;;;;;;;0.10;0.10;;;;;;;;;;4989383;28;20768;-81
2022/07/21 01:56:15;;;;;;;0.10;0.10;;;;;;;;;;4988799;28;20088;-80
2022/07/21 01:58:41;;;;;;;0.10;0.10;;;;;;;;;;4987568;28;20521;-79
2022/07/21 02:01:07;;;;;;;0.10;0.10;;;;;;;;;;5004044;28;20022;-83
2022/07/21 02:03:33;;;;;;;0.10;0.10;;;;;;;;;;4989120;28;20042;-81
2022/07/21 02:06:03;;;;;;;0.10;0.10;;;;;;;;;;4988837;28;20034;-80
2022/07/21 02:08:29;;;;;;;0.10;0.10;;;;;;;;;;5004809;28;20073;-81
2022/07/21 02:10:55;;;;;;;0.00;0.00;;;;;;;;;;4988117;28;20022;-80
2022/07/21 02:13:21;;;;;;;0.10;0.10;;;;;;;;;;4988508;28;20529;-87
2022/07/21 02:15:47;;;;;;;0.10;0.10;;;;;;;;;;4988241;28;20018;-83
2022/07/21 02:18:13;;;;;;;0.08;0.08;;;;;;;;;;4988286;28;20030;-81
2022/07/21 02:20:39;;;;;;;0.10;0.10;;;;;;;;;;4988086;28;20421;-78
2022/07/21 02:23:05;;;;;;;0.10;0.10;;;;;;;;;;4988354;28;20026;-81
2022/07/21 02:25:31;;;;;;;0.85;0.85;;;;;;;;;;4988931;28;20031;-86
2022/07/21 02:27:57;;;;;;;0.10;0.10;;;;;;;;;;4989053;28;20487;-78
2022/07/21 02:30:23;;;;;;;0.10;0.10;;;;;;;;;;4988787;28;20039;-82
2022/07/21 02:32:49;;;;;;;0.10;0.10;;;;;;;;;;4988146;28;20089;-85
2022/07/21 02:35:15;;;;;;;0.10;0.10;;;;;;;;;;4989165;28;20537;-85
2022/07/21 02:37:41;;;;;;;0.10;0.10;;;;;;;;;;4988138;28;20035;-80
2022/07/21 02:40:08;;;;;;;0.10;0.10;;;;;;;;;;4988341;28;20030;-82
2022/07/21 02:42:34;;;;;;;0.10;0.10;;;;;;;;;;4988525;28;20026;-83
2022/07/21 02:45:00;;;;;;;0.00;0.00;;;;;;;;;;4988434;28;20060;-83
2022/07/21 02:47:26;;;;;;;0.10;0.10;;;;;;;;;;4987451;28;20042;-83
2022/07/21 02:49:52;;;;;;;0.00;0.00;;;;;;;;;;4987605;28;20386;-87
2022/07/21 02:52:18;;;;;;;0.10;0.10;;;;;;;;;;4987727;28;20049;-83
2022/07/21 02:54:44;;;;;;;0.10;0.10;;;;;;;;;;4987023;28;20081;-86
2022/07/21 02:57:10;;;;;;;0.10;0.10;;;;;;;;;;4987541;28;20059;-79
2022/07/21 02:59:36;;;;;;;0.10;0.10;;;;;;;;;;4986531;28;20022;-78
2022/07/21 03:02:02;;;;;;;0.10;0.10;;;;;;;;;;4987853;28;20520;-82
2022/07/21 03:04:28;;;;;;;0.10;0.10;;;;;;;;;;4987728;28;20541;-80
2022/07/21 03:06:54;;;;;;;0.10;0.10;;;;;;;;;;4988038;28;20034;-80
2022/07/21 03:09:20;;;;;;;0.10;0.10;;;;;;;;;;4987827;28;20116;-82
2022/07/21 03:11:46;;;;;;;0.10;0.10;;;;;;;;;;4987661;28;20405;-79
2022/07/21 03:14:12;;;;;;;0.00;0.00;;;;;;;;;;4987886;28;20026;-78
2022/07/21 03:16:38;;;;;;;0.10;0.10;;;;;;;;;;4987485;28;20773;-80
2022/07/21 03:19:04;;;;;;;0.10;0.10;;;;;;;;;;4988187;28;20559;-78
2022/07/21 03:21:30;;;;;;;0.10;0.10;;;;;;;;;;4986413;28;20085;-81
2022/07/21 03:23:56;;;;;;;0.10;0.10;;;;;;;;;;4986217;28;20030;-79
2022/07/21 03:26:22;;;;;;;0.10;0.10;;;;;;;;;;4987402;28;20094;-80
2022/07/21 03:28:48;;;;;;;0.10;0.10;;;;;;;;;;4988492;28;20109;-78
2022/07/21 03:31:14;;;;;;;0.10;0.10;;;;;;;;;;4987530;28;20040;-83
2022/07/21 03:33:40;;;;;;;0.10;0.10;;;;;;;;;;4987827;28;20421;-81
2022/07/21 03:36:07;;;;;;;0.10;0.10;;;;;;;;;;4988768;28;20030;-81
2022/07/21 03:38:33;;;;;;;0.10;0.10;;;;;;;;;;4986397;28;20036;-80
2022/07/21 03:40:59;;;;;;;0.10;0.10;;;;;;;;;;4987285;28;20187;-83
2022/07/21 03:43:25;;;;;;;0.10;0.10;;;;;;;;;;4986675;28;20034;-80
2022/07/21 03:45:51;;;;;;;0.10;0.10;;;;;;;;;;4987187;28;20101;-78
2022/07/21 03:48:17;;;;;;;0.10;0.10;;;;;;;;;;4987721;28;20030;-80
2022/07/21 03:50:43;;;;;;;0.10;0.10;;;;;;;;;;4986821;28;20026;-81
2022/07/21 03:53:09;;;;;;;0.10;0.10;;;;;;;;;;4987097;28;20484;-78
2022/07/21 03:55:35;;;;;;;0.10;0.10;;;;;;;;;;4987080;28;20057;-83
2022/07/21 03:58:03;;;;;;;0.10;0.10;;;;;;;;;;4985981;28;20026;-80
2022/07/21 04:00:33;;;;;;;0.10;0.10;;;;;;;;;;4987128;28;20569;-80
2022/07/21 04:03:00;;;;;;;0.10;0.10;;;;;;;;;;4984892;28;20129;-81
2022/07/21 04:05:26;;;;;;;0.10;0.10;;;;;;;;;;4985949;28;20037;-85
2022/07/21 04:07:53;;;;;;;0.10;0.10;;;;;;;;;;4986023;28;20054;-77
2022/07/21 04:10:26;;;;;;;0.10;0.10;;;;;;;;;;5001222;28;20437;-82
2022/07/21 04:12:53;;;;;;;0.10;0.10;;;;;;;;;;4986477;28;20100;-78
2022/07/21 04:15:19;;;;;;;0.10;0.10;;;;;;;;;;4986368;28;20023;-78
2022/07/21 04:17:46;;;;;;;0.10;0.10;;;;;;;;;;4986577;28;20085;-82
2022/07/21 04:20:13;;;;;;;0.05;0.05;;;;;;;;;;4986698;28;20121;-79
2022/07/21 04:22:40;;;;;;;0.00;0.00;;;;;;;;;;4985950;28;20662;-80
2022/07/21 04:25:07;;;;;;;0.10;0.10;;;;;;;;;;4987226;28;20030;-82
2022/07/21 04:27:33;;;;;;;0.10;0.10;;;;;;;;;;4987359;28;20039;-84
2022/07/21 04:29:59;;;;;;;0.10;0.10;;;;;;;;;;4986436;28;21048;-81
2022/07/21 04:32:25;;;;;;;0.10;0.10;;;;;;;;;;4986352;28;20038;-80
2022/07/21 04:34:51;;;;;;;0.10;0.10;;;;;;;;;;4985940;28;20069;-78
2022/07/21 04:37:17;;;;;;;0.10;0.10;;;;;;;;;;4986054;28;20030;-80
2022/07/21 04:39:43;;;;;;;0.10;0.10;;;;;;;;;;4986381;28;20025;-82
2022/07/21 04:42:09;;;;;;;0.10;0.10;;;;;;;;;;4986433;28;20414;-77
2022/07/21 04:44:36;;;;;;;0.10;0.10;;;;;;;;;;4987096;28;20034;-81
2022/07/21 04:47:02;;;;;;;0.10;0.10;;;;;;;;;;4986143;28;20038;-80
2022/07/21 04:49:28;;;;;;;0.10;0.10;;;;;;;;;;4985892;28;20619;-77
2022/07/21 04:51:54;;;;;;;0.10;0.10;;;;;;;;;;5000502;28;20402;-80
2022/07/21 04:54:20;;;;;;;0.10;0.10;;;;;;;;;;4986091;28;20048;-80
2022/07/21 04:56:46;;;;;;;0.10;0.10;;;;;;;;;;4986001;28;20041;-80
2022/07/21 04:59:12;;;;;;;0.10;0.10;;;;;;;;;;4986297;28;20026;-78
2022/07/21 05:01:38;;;;;;;0.10;0.10;;;;;;;;;;4985981;28;20058;-81
2022/07/21 05:04:04;;;;;;;0.63;0.63;;;;;;;;;;4985852;28;20072;-77
2022/07/21 05:06:30;;;;;;;0.10;0.10;;;;;;;;;;4986581;28;20194;-78
2022/07/21 05:08:57;;;;;;;0.10;0.10;;;;;;;;;;4985311;28;20145;-80
2022/07/21 05:11:23;;;;;;;0.10;0.10;;;;;;;;;;4985472;28;20050;-81
2022/07/21 05:13:49;;;;;;;0.10;0.10;;;;;;;;;;4985475;28;20762;-80
2022/07/21 05:16:15;;;;;;;0.10;0.10;;;;;;;;;;4985541;28;20038;-80
2022/07/21 05:18:41;;;;;;;0.10;0.10;;;;;;;;;;4985386;28;20042;-77
2022/07/21 05:21:07;;;;;;;0.00;0.00;;;;;;;;;;4986484;28;20042;-77
2022/07/21 05:23:33;;;;;;;0.10;0.10;;;;;;;;;;4984378;28;20049;-78
2022/07/21 05:25:59;;;;;;;0.10;0.10;;;;;;;;;;4985295;28;20480;-80
2022/07/21 05:28:25;;;;;;;0.10;0.10;;;;;;;;;;4984778;28;20483;-82
2022/07/21 05:30:51;;;;;;;0.10;0.10;;;;;;;;;;4985429;28;20061;-80
2022/07/21 05:33:17;;;;;;;0.10;0.10;;;;;;;;;;4985838;28;20109;-77
2022/07/21 05:35:43;;;;;;;0.00;0.00;;;;;;;;;;5000413;28;20054;-80
2022/07/21 05:38:09;;;;;;;0.10;0.10;;;;;;;;;;4985524;28;20061;-78
2022/07/21 05:40:35;;;;;;;0.10;0.10;;;;;;;;;;4985515;28;20034;-78
2022/07/21 05:43:01;;;;;;;0.10;0.10;;;;;;;;;;4985324;28;20405;-83
2022/07/21 05:45:27;;;;;;;0.00;0.00;;;;;;;;;;4985094;28;20061;-81
2022/07/21 05:47:53;;;;;;;0.10;0.10;;;;;;;;;;4985303;28;20100;-78
2022/07/21 05:50:19;;;;;;;0.10;0.10;;;;;;;;;;5000605;28;20034;-84
2022/07/21 05:52:45;;;;;;;0.10;0.10;;;;;;;;;;4984819;28;20038;-76
2022/07/21 05:55:11;;;;;;;0.10;0.10;;;;;;;;;;4984799;28;20023;-83
2022/07/21 05:57:37;;;;;;;0.20;0.20;;;;;;;;;;4985011;28;20034;-80
2022/07/21 06:00:04;;;;;;;0.10;0.10;;;;;;;;;;4984684;28;20034;-80
2022/07/21 06:02:31;;;;;;;0.10;0.10;;;;;;;;;;4985277;28;20058;-81
2022/07/21 06:04:57;;;;;;;0.10;0.10;;;;;;;;;;4983040;28;20557;-82
2022/07/21 06:07:23;;;;;;;0.10;0.10;;;;;;;;;;4983512;28;20036;-80
2022/07/21 06:09:49;;;;;;;0.10;0.10;;;;;;;;;;4983442;28;20026;-79
2022/07/21 06:12:15;;;;;;;0.10;0.10;;;;;;;;;;4984002;28;20035;-87
2022/07/21 06:14:42;;;;;;;0.10;0.10;;;;;;;;;;4984743;28;20022;-77
2022/07/21 06:17:08;;;;;;;0.10;0.10;;;;;;;;;;4984966;28;20031;-80
2022/07/21 06:19:34;;;;;;;0.10;0.10;;;;;;;;;;4983453;28;20034;-79
2022/07/21 06:22:00;;;;;;;0.00;0.00;;;;;;;;;;4984186;28;20504;-85
2022/07/21 06:24:26;;;;;;;0.10;0.10;;;;;;;;;;4984915;28;20038;-79
2022/07/21 06:26:55;;;;;;;0.10;0.10;;;;;;;;;;4983501;28;20104;-87
2022/07/21 06:29:21;;;;;;;0.10;0.10;;;;;;;;;;4984297;28;20054;-76
2022/07/21 06:31:47;;;;;;;0.10;0.10;;;;;;;;;;4985847;28;20109;-80
2022/07/21 06:34:13;;;;;;;0.10;0.10;;;;;;;;;;4989814;28;20104;-76
2022/07/21 06:36:39;;;;;;;0.38;0.38;;;;;;;;;;4995582;28;20038;-76
2022/07/21 06:39:05;;;;;;;0.03;0.03;;;;;;;;;;4988936;28;20030;-82
2022/07/21 06:41:32;;;;;;;0.55;0.55;;;;;;;;;;4988289;28;20026;-78
2022/07/21 06:43:58;;;;;;;0.10;0.10;;;;;;;;;;4988196;28;20026;-82
2022/07/21 06:46:24;;;;;;;0.10;0.10;;;;;;;;;;4992231;28;20030;-83
2022/07/21 06:48:50;;;;;;;0.10;0.10;;;;;;;;;;4988643;28;20034;-84
2022/07/21 06:51:17;;;;;;;0.10;0.10;;;;;;;;;;4981815;28;20058;-81
2022/07/21 06:53:43;;;;;;;0.10;0.10;;;;;;;;;;4983069;28;20090;-82
2022/07/21 06:56:09;;;;;;;0.10;0.10;;;;;;;;;;4983819;28;20503;-81
2022/07/21 06:58:35;;;;;;;0.10;0.10;;;;;;;;;;4982437;28;20430;-89
2022/07/21 07:01:01;;;;;;;0.10;0.10;;;;;;;;;;4978842;28;20041;-89
2022/07/21 07:03:27;;;;;;;0.10;0.10;;;;;;;;;;4974986;28;20030;-91
2022/07/21 07:05:54;;;;;;;0.10;0.10;;;;;;;;;;4974682;28;20034;-88
2022/07/21 07:08:20;;;;;;;0.10;0.10;;;;;;;;;;4974807;28;20022;-93
2022/07/21 07:10:46;;;;;;;0.10;0.10;;;;;;;;;;4974738;28;20118;-89
2022/07/21 07:13:13;;;;;;;0.10;0.10;;;;;;;;;;4980775;28;20030;-89
2022/07/21 07:15:40;;;;;;;0.00;0.00;;;;;;;;;;4990435;28;20145;-81
2022/07/21 07:18:06;;;;;;;0.10;0.10;;;;;;;;;;5010805;28;20089;-94
2022/07/21 07:20:32;;;;;;;0.10;0.10;;;;;;;;;;4995036;28;20034;-94
2022/07/21 07:22:58;;;;;;;0.10;0.10;;;;;;;;;;4993895;28;20019;-90
2022/07/21 07:25:24;;;;;;;0.10;0.10;;;;;;;;;;4994080;28;20034;-83
2022/07/21 07:27:51;;;;;;;0.10;0.10;;;;;;;;;;4993025;28;20025;-88
2022/07/21 07:30:18;;;;;;;0.10;0.10;;;;;;;;;;4993977;28;20045;-91
2022/07/21 07:32:44;;;;;;;0.10;0.10;;;;;;;;;;4993440;28;20509;-89
2022/07/21 07:35:11;;;;;;;0.10;0.10;;;;;;;;;;4993638;28;20018;-88
2022/07/21 07:37:38;;;;;;;0.10;0.10;;;;;;;;;;4994026;28;20023;-89
2022/07/21 07:40:08;;;;;;;0.10;0.10;;;;;;;;;;4991186;28;20399;-88
2022/07/21 07:42:35;;;;;;;0.10;0.10;;;;;;;;;;4993671;28;20405;-88
2022/07/21 07:45:01;;;;;;;0.10;0.10;;;;;;;;;;4993350;28;20023;-88
2022/07/21 07:47:27;;;;;;;0.10;0.10;;;;;;;;;;4993641;28;20030;-88
2022/07/21 07:49:53;;;;;;;0.08;0.08;;;;;;;;;;4993105;28;20018;-92
2022/07/21 07:52:20;;;;;;;0.10;0.10;;;;;;;;;;4993162;28;20113;-89
2022/07/21 07:54:46;;;;;;;0.10;0.10;;;;;;;;;;4993114;28;20019;-86
2022/07/21 07:57:12;;;;;;;0.10;0.10;;;;;;;;;;4990981;28;20073;-90
2022/07/21 07:59:38;;;;;;;0.10;0.10;;;;;;;;;;4974371;28;20018;-91
2022/07/21 08:02:04;;;;;;;0.10;0.10;;;;;;;;;;4974253;28;20031;-93
2022/07/21 08:04:30;;;;;;;0.10;0.10;;;;;;;;;;4985314;28;20536;-90
2022/07/21 08:06:56;;;;;;;0.10;0.10;;;;;;;;;;5008487;28;20038;-89
2022/07/21 08:09:22;;;;;;;0.10;0.10;;;;;;;;;;4975914;28;20031;-88
2022/07/21 08:11:50;;;;;;;0.10;0.10;;;;;;;;;;4982793;28;20034;-89
2022/07/21 08:14:16;;;;;;;0.10;0.10;;;;;;;;;;4993069;28;20498;-89
2022/07/21 08:16:42;;;;;;;0.10;0.10;;;;;;;;;;4991913;28;20387;-88
2022/07/21 08:19:08;;;;;;;0.10;0.10;;;;;;;;;;4994758;28;20030;-86
2022/07/21 08:21:34;;;;;;;0.10;0.10;;;;;;;;;;4994050;28;20462;-86
2022/07/21 08:24:01;;;;;;;0.10;0.10;;;;;;;;;;4982913;28;20027;-85
2022/07/21 08:26:27;;;;;;;0.10;0.10;;;;;;;;;;4972956;28;20029;-86
2022/07/21 08:28:54;;;;;;;0.10;0.10;;;;;;;;;;4973237;28;20027;-85
2022/07/21 08:31:20;;;;;;;0.10;0.10;;;;;;;;;;4972995;28;20043;-89
2022/07/21 08:33:46;;;;;;;0.10;0.10;;;;;;;;;;4980362;28;20026;-92
2022/07/21 08:36:12;;;;;;;0.10;0.10;;;;;;;;;;4992909;28;20026;-90
2022/07/21 08:38:39;;;;;;;0.10;0.10;;;;;;;;;;4991675;28;20027;-91
2022/07/21 08:41:07;;;;;;;0.10;0.10;;;;;;;;;;4993073;28;20076;-86
2022/07/21 08:43:33;;;;;;;0.10;0.10;;;;;;;;;;4991475;28;20034;-89
2022/07/21 08:45:59;;;;;;;0.10;0.10;;;;;;;;;;4992593;28;20663;-91
2022/07/21 08:48:26;;;;;;;0.10;0.10;;;;;;;;;;4993174;28;20026;-87
2022/07/21 08:50:52;;;;;;;0.10;0.10;;;;;;;;;;4991911;28;20026;-86
2022/07/21 08:53:18;;;;;;;0.10;0.10;;;;;;;;;;4992491;28;20505;-87
2022/07/21 08:55:44;;;;;;;0.10;0.10;;;;;;;;;;4992414;28;20159;-81
2022/07/21 08:58:11;;;;;;;0.10;0.10;;;;;;;;;;4992352;28;20026;-91
2022/07/21 09:00:39;;;;;;;0.10;0.10;;;;;;;;;;4992953;28;20025;-87
2022/07/21 09:03:10;;;;;;;0.10;0.10;;;;;;;;;;4991972;28;20022;-90
2022/07/21 09:05:36;;;;;;;0.10;0.10;;;;;;;;;;4992079;28;20430;-84
2022/07/21 09:08:02;;;;;;;0.10;0.10;;;;;;;;;;4989860;28;20057;-82
2022/07/21 09:10:30;;;;;;;0.10;0.10;;;;;;;;;;4992174;28;20033;-87
2022/07/21 09:12:57;;;;;;;0.10;0.10;;;;;;;;;;4992025;28;20030;-87
2022/07/21 09:15:24;;;;;;;0.10;0.10;;;;;;;;;;4990860;28;20023;-81
2022/07/21 09:18:06;;;;;;;0.10;0.10;;;;;;;;;;4989500;28;20023;-91
2022/07/21 09:20:33;;;;;;;0.10;0.10;;;;;;;;;;4972411;28;20410;-91
2022/07/21 09:23:03;;;;;;;0.10;0.10;;;;;;;;;;4979610;28;20110;-89
2022/07/21 09:25:34;;;;;;;0.10;0.10;;;;;;;;;;4984726;28;20045;-88
2022/07/21 09:28:08;;;;;;;0.10;0.10;;;;;;;;;;4991649;28;20097;-89
2022/07/21 09:30:47;;;;;;;0.10;0.10;;;;;;;;;;4992000;28;20034;-87
2022/07/21 09:33:24;;;;;;;0.10;0.10;;;;;;;;;;5007207;28;20038;-92
2022/07/21 09:35:58;;;;;;;0.10;0.10;;;;;;;;;;4991611;28;20030;-87
2022/07/21 09:38:25;;;;;;;0.10;0.10;;;;;;;;;;4991946;28;20038;-88
2022/07/21 09:40:51;;;;;;;0.10;0.10;;;;;;;;;;4991458;28;20093;-88
2022/07/21 09:43:43;;;;;;;0.10;0.10;;;;;;;;;;4991112;28;20054;-90
2022/07/21 09:46:18;;;;;;;0.10;0.10;;;;;;;;;;4991026;28;20037;-83
2022/07/21 09:48:47;;;;;;;0.10;0.10;;;;;;;;;;5005679;28;20069;-88
2022/07/21 09:51:34;;;;;;;0.10;0.10;;;;;;;;;;4991001;28;20062;-91
2022/07/21 09:54:05;;;;;;;0.10;0.10;;;;;;;;;;4992026;28;20502;-91
2022/07/21 09:56:33;;;;;;;0.10;0.10;;;;;;;;;;4992153;28;20033;-94
2022/07/21 09:58:59;;;;;;;0.10;0.10;;;;;;;;;;4992979;28;20398;-89
2022/07/21 10:01:26;;;;;;;0.10;0.10;;;;;;;;;;4991803;28;20077;-92
2022/07/21 10:03:53;;;;;;;0.10;0.10;;;;;;;;;;4991931;28;20429;-87
2022/07/21 10:06:20;;;;;;;0.10;0.10;;;;;;;;;;4993271;28;20453;-89
2022/07/21 10:08:47;;;;;;;0.10;0.10;;;;;;;;;;4994613;28;20026;-87
2022/07/21 10:11:13;;;;;;;0.10;0.10;;;;;;;;;;4995756;28;20065;-87
2022/07/21 10:13:40;;;;;;;0.10;0.10;;;;;;;;;;4993609;28;20053;-82
2022/07/21 10:16:06;;;;;;;0.10;0.10;;;;;;;;;;4995082;28;20085;-83
2022/07/21 10:18:34;;;;;;;0.10;0.10;;;;;;;;;;4995091;28;20022;-86
2022/07/21 10:21:05;;;;;;;0.10;0.10;;;;;;;;;;4994910;28;20356;-86
2022/07/21 10:23:41;;;;;;;0.10;0.10;;;;;;;;;;4993562;28;20034;-81
2022/07/21 10:26:08;;;;;;;0.10;0.10;;;;;;;;;;4994939;28;20471;-82
2022/07/21 10:28:34;;;;;;;0.10;0.10;;;;;;;;;;4994229;28;20038;-81
2022/07/21 10:31:12;;;;;;;0.10;0.10;;;;;;;;;;4993654;28;20042;-84
2022/07/21 10:33:50;;;;;;;0.10;0.10;;;;;;;;;;4975330;28;20077;-85
2022/07/21 10:36:28;;;;;;;0.10;0.10;;;;;;;;;;4993796;28;20057;-88
2022/07/21 10:39:09;;;;;;;0.10;0.10;;;;;;;;;;4994101;28;20398;-83
2022/07/21 10:41:39;;;;;;;0.20;0.20;;;;;;;;;;4994959;28;20023;-82
2022/07/21 10:44:30;;;;;;;0.10;0.10;;;;;;;;;;4994943;28;20116;-82
2022/07/21 10:47:20;;;;;;;0.10;0.10;;;;;;;;;;4991661;28;20076;-87
2022/07/21 10:49:46;;;;;;;0.10;0.10;;;;;;;;;;4991785;28;20037;-83
2022/07/21 10:52:30;;;;;;;0.10;0.10;;;;;;;;;;4993140;28;20046;-79
2022/07/21 10:55:11;;;;;;;0.10;0.10;;;;;;;;;;4985026;28;20038;-83
2022/07/21 10:57:38;;;;;;;0.10;0.10;;;;;;;;;;4973899;28;20031;-83
2022/07/21 11:00:18;;;;;;;0.10;0.10;;;;;;;;;;4993683;28;20034;-84
2022/07/21 11:02:44;;;;;;;0.10;0.10;;;;;;;;;;4993012;28;20030;-79
2022/07/21 11:05:10;;;;;;;0.10;0.10;;;;;;;;;;4994237;28;20027;-84
2022/07/21 11:07:55;;;;;;;0.10;0.10;;;;;;;;;;4994464;28;20027;-82
2022/07/21 11:10:22;;;;;;;0.10;0.10;;;;;;;;;;4994097;28;20018;-83
2022/07/21 11:12:58;;;;;;;0.10;0.10;;;;;;;;;;4992728;28;20034;-81
2022/07/21 11:15:46;;;;;;;0.10;0.10;;;;;;;;;;4993460;28;20486;-85
2022/07/21 11:18:20;;;;;;;0.10;0.10;;;;;;;;;;4994255;28;20031;-85
2022/07/21 11:21:04;;;;;;;0.10;0.10;;;;;;;;;;5002196;28;20032;-78
2022/07/21 11:23:41;;;;;;;0.10;0.10;;;;;;;;;;4997665;28;20038;-83
2022/07/21 11:26:08;;;;;;;0.10;0.10;;;;;;;;;;4994576;28;20030;-83
2022/07/21 11:28:34;;;;;;;0.10;0.10;;;;;;;;;;4993992;28;20101;-82
2022/07/21 11:31:06;;;;;;;0.10;0.10;;;;;;;;;;4993716;28;20034;-87
2022/07/21 11:33:33;;;;;;;0.10;0.10;;;;;;;;;;4994625;28;20030;-93
2022/07/21 11:35:59;;;;;;;0.10;0.10;;;;;;;;;;4993583;28;20026;-83
2022/07/21 11:38:25;;;;;;;0.10;0.10;;;;;;;;;;4993322;28;20034;-82
2022/07/21 11:40:51;;;;;;;0.10;0.10;;;;;;;;;;4993282;28;20031;-79
2022/07/21 11:43:17;;;;;;;0.10;0.10;;;;;;;;;;4993578;28;20037;-80
2022/07/21 11:45:55;;;;;;;0.10;0.10;;;;;;;;;;4993289;28;20479;-79
2022/07/21 11:48:31;;;;;;;0.10;0.10;;;;;;;;;;4993416;28;20034;-81
2022/07/21 11:51:01;;;;;;;0.10;0.10;;;;;;;;;;4993060;28;20027;-85
2022/07/21 11:53:27;;;;;;;0.10;0.10;;;;;;;;;;4993088;28;20026;-84
2022/07/21 11:55:56;;;;;;;0.10;0.10;;;;;;;;;;4991892;28;20031;-84
2022/07/21 11:58:22;;;;;;;0.10;0.10;;;;;;;;;;4993297;28;20053;-87
2022/07/21 12:00:48;;;;;;;0.10;0.10;;;;;;;;;;4992158;28;20023;-84
2022/07/21 12:03:14;;;;;;;0.10;0.10;;;;;;;;;;4993000;28;20410;-87
2022/07/21 12:05:41;;;;;;;0.10;0.10;;;;;;;;;;4992825;28;20061;-77
2022/07/21 12:08:07;;;;;;;0.10;0.10;;;;;;;;;;4992981;28;20027;-84
2022/07/21 12:10:33;;;;;;;0.10;0.10;;;;;;;;;;4991912;28;20030;-81
2022/07/21 12:13:00;;;;;;;0.10;0.10;;;;;;;;;;4992309;28;20050;-88
2022/07/21 12:15:29;;;;;;;0.10;0.10;;;;;;;;;;4991539;28;20026;-86
2022/07/21 12:17:56;;;;;;;0.10;0.10;;;;;;;;;;4992597;28;20483;-95
2022/07/21 12:20:28;;;;;;;0.10;0.10;;;;;;;;;;4994890;28;20060;-90
2022/07/21 12:22:55;;;;;;;0.10;0.10;;;;;;;;;;4993895;28;20100;-80
2022/07/21 12:25:40;;;;;;;0.10;0.10;;;;;;;;;;5008104;28;20034;-93
2022/07/21 12:28:07;;;;;;;0.10;0.10;;;;;;;;;;4993097;28;20057;-89
2022/07/21 12:30:35;;;;;;;0.10;0.10;;;;;;;;;;4992587;28;20026;-93
2022/07/21 12:33:02;;;;;;;0.10;0.10;;;;;;;;;;4993785;28;20452;-90
2022/07/21 12:35:28;;;;;;;0.10;0.10;;;;;;;;;;4994208;28;20026;-93
2022/07/21 12:37:57;;;;;;;0.10;0.10;;;;;;;;;;4993065;28;20038;-94
2022/07/21 12:40:25;;;;;;;0.00;0.00;;;;;;;;;;5009304;28;20022;-91
2022/07/21 12:42:51;;;;;;;0.10;0.10;;;;;;;;;;4993253;28;20034;-92
2022/07/21 12:45:18;;;;;;;0.10;0.10;;;;;;;;;;4992871;28;20018;-85
2022/07/21 12:48:04;;;;;;;0.10;0.10;;;;;;;;;;4991100;28;20068;-89
2022/07/21 12:50:30;;;;;;;;;;;;;;;;;;4980886;28;20458;-93
2022/07/21 12:52:56;;;;;;;;;;;;;;;;;;4992550;28;19909;-89
2022/07/21 12:55:22;;;;;;;0.10;0.10;;;;;;;;;;4992509;28;20000;-93
2022/07/21 12:57:48;;;;;;;0.10;0.10;;;;;;;;;;4992128;28;20072;-88
2022/07/21 13:00:14;;;;;;;0.10;0.10;;;;;;;;;;4992772;28;20470;-94
2022/07/21 13:02:47;;;;;;;0.10;0.10;;;;;;;;;;4991766;28;20023;-89
2022/07/21 13:05:13;;;;;;;0.10;0.10;;;;;;;;;;4992160;28;20034;-90
2022/07/21 13:07:39;;;;;;;0.10;0.10;;;;;;;;;;4992041;28;20030;-78
2022/07/21 13:10:05;;;;;;;0.10;0.10;;;;;;;;;;4992144;28;20037;-91
2022/07/21 13:12:31;;;;;;;0.10;0.10;;;;;;;;;;4973812;28;20518;-91
2022/07/21 13:14:57;;;;;;;0.10;0.10;;;;;;;;;;4972576;28;20106;-89
2022/07/21 13:17:23;;;;;;;0.10;0.10;;;;;;;;;;4974270;28;20106;-88
2022/07/21 13:19:49;;;;;;;0.10;0.10;;;;;;;;;;4992566;28;20092;-89
2022/07/21 13:22:15;;;;;;;0.10;0.10;;;;;;;;;;4984008;28;20022;-92
2022/07/21 13:24:41;;;;;;;0.10;0.10;;;;;;;;;;4972566;28;20035;-88
2022/07/21 13:27:07;;;;;;;0.10;0.10;;;;;;;;;;4973294;28;20015;-92
2022/07/21 13:29:35;;;;;;;0.10;0.10;;;;;;;;;;4989827;28;20398;-93
2022/07/21 13:32:01;;;;;;;0.10;0.10;;;;;;;;;;4991715;28;20042;-84
2022/07/21 13:34:27;;;;;;;0.10;0.10;;;;;;;;;;4990759;28;20033;-89
2022/07/21 13:36:53;;;;;;;0.10;0.10;;;;;;;;;;4991395;28;20030;-88
2022/07/21 13:39:20;;;;;;;0.15;0.15;;;;;;;;;;4994162;28;20367;-90
2022/07/21 13:41:46;;;;;;;0.10;0.10;;;;;;;;;;4994987;28;20030;-88
2022/07/21 13:44:13;;;;;;;0.10;0.10;;;;;;;;;;4995797;28;20084;-86
2022/07/21 13:46:39;;;;;;;0.10;0.10;;;;;;;;;;4995932;28;20052;-88
2022/07/21 13:49:05;;;;;;;0.10;0.10;;;;;;;;;;4995904;28;20026;-87
2022/07/21 13:51:31;;;;;;;0.10;0.10;;;;;;;;;;4995533;28;20038;-88
2022/07/21 13:53:57;;;;;;;0.10;0.10;;;;;;;;;;4994330;28;20061;-87
2022/07/21 13:56:23;;;;;;;0.10;0.10;;;;;;;;;;4995491;28;20041;-90
2022/07/21 13:58:49;;;;;;;0.10;0.10;;;;;;;;;;4995086;28;20027;-87
2022/07/21 14:01:15;;;;;;;0.00;0.00;;;;;;;;;;5009822;28;20027;-88
2022/07/21 14:03:41;;;;;;;0.10;0.10;;;;;;;;;;4994996;28;20077;-86
2022/07/21 14:06:08;;;;;;;0.10;0.10;;;;;;;;;;4995269;28;20529;-86
2022/07/21 14:08:34;;;;;;;0.10;0.10;;;;;;;;;;4980618;28;20114;-88
2022/07/21 14:11:00;;;;;;;0.10;0.10;;;;;;;;;;4975511;28;20159;-85
2022/07/21 14:13:26;;;;;;;0.10;0.10;;;;;;;;;;4974650;28;20057;-82
2022/07/21 14:15:52;;;;;;;0.10;0.10;;;;;;;;;;4974353;28;20031;-87
2022/07/21 14:18:18;;;;;;;0.10;0.10;;;;;;;;;;4975662;28;20426;-87
2022/07/21 14:20:44;;;;;;;0.08;0.08;;;;;;;;;;4975292;28;20031;-91
2022/07/21 14:23:10;;;;;;;0.10;0.10;;;;;;;;;;4993663;28;20026;-86
2022/07/21 14:25:36;;;;;;;0.10;0.10;;;;;;;;;;4995398;28;20093;-92
2022/07/21 14:28:02;;;;;;;0.10;0.10;;;;;;;;;;4994493;28;20498;-81
2022/07/21 14:30:28;;;;;;;0.10;0.10;;;;;;;;;;4994049;28;20038;-86
2022/07/21 14:32:54;;;;;;;0.10;0.10;;;;;;;;;;4994892;28;20526;-86
2022/07/21 14:35:20;;;;;;;0.10;0.10;;;;;;;;;;4995137;28;20389;-90
2022/07/21 14:37:49;;;;;;;0.10;0.10;;;;;;;;;;4995388;28;20027;-91
2022/07/21 14:40:17;;;;;;;0.10;0.10;;;;;;;;;;4995606;28;20022;-88
2022/07/21 14:42:45;;;;;;;0.10;0.10;;;;;;;;;;4997509;28;20034;-94
2022/07/21 14:45:11;;;;;;;0.10;0.10;;;;;;;;;;4997922;28;20498;-84
2022/07/21 14:47:37;;;;;;;0.10;0.10;;;;;;;;;;4996760;28;20034;-93